Date,TemperatureHighF,TemperatureAvgF,TemperatureLowF,DewpointHighF,DewpointAvgF,DewpointLowF,HumidityHigh,HumidityAvg,HumidityLow,PressureMaxIn,PressureMinIn,WindSpeedMaxMPH,WindSpeedAvgMPH,GustSpeedMaxMPH,PrecipitationSumIn
2012-11-1,56,53,52,55,52,50,96,95,94,29.99,29.68,7,1,9,0.60
2012-11-2,57,53,50,55,52,48,96,95,94,30.01,29.94,5,1,5,0.23
2012-11-3,58,54,52,56,53,50,96,95,95,30.15,29.94,12,2,12,0.11
2012-11-4,61,58,54,60,56,53,96,96,95,30.28,30.14,13,2,13,0.34
2012-11-5,58,52,46,56,50,44,96,92,86,30.37,30.13,10,2,10,0.05
2012-11-6,54,49,44,53,47,42,95,93,91,30.13,29.92,18,2,18,0.01
2012-11-7,52,46,40,47,43,38,94,89,78,30.10,29.91,14,2,14,0.00
2012-11-8,49,42,36,45,38,33,94,87,79,29.91,29.78,12,2,12,0.01
2012-11-9,46,37,33,43,34,29,93,88,83,29.92,29.81,6,2,6,0.00
2012-11-10,44,35,31,39,32,28,92,86,76,30.19,29.92,5,2,5,0.01
2012-11-11,46,40,33,42,37,29,93,90,87,30.20,30.04,4,1,4,0.77
2012-11-12,52,48,44,50,46,42,95,94,92,30.18,30.04,9,2,9,0.18
2012-11-13,51,49,47,49,48,46,95,95,94,30.18,30.10,9,1,9,0.32
2012-11-14,50,47,43,48,46,41,96,95,93,30.29,30.14,6,1,6,0.01
2012-11-15,46,43,41,44,42,39,95,94,93,30.24,29.91,9,2,9,0.00
2012-11-16,45,43,40,44,42,38,95,95,93,29.91,29.66,5,1,5,0.25
2012-11-17,49,45,42,48,44,40,96,95,93,29.68,29.45,15,3,15,0.33
2012-11-18,47,45,42,45,43,41,95,94,93,29.73,29.49,14,2,14,0.72
2012-11-19,53,49,46,52,48,45,96,95,94,29.66,29.32,20,3,20,2.97
2012-11-20,49,46,42,48,44,41,96,95,92,29.67,29.50,19,2,19,0.41
2012-11-21,45,42,39,43,41,38,95,95,94,30.25,29.48,17,4,17,0.88
2012-11-22,45,41,36,43,39,34,96,95,93,30.33,30.17,5,1,5,0.00
2012-11-23,49,46,42,48,44,40,96,95,95,30.20,29.98,11,2,11,1.19
2012-11-24,48,43,38,46,42,36,96,95,94,30.24,30.10,6,1,6,0.02
2012-11-25,44,40,37,43,39,36,96,94,91,30.32,30.17,13,2,13,0.00
2012-11-26,45,40,36,42,38,34,94,91,87,30.19,30.01,10,2,10,0.00
2012-11-27,45,40,34,43,38,32,95,93,91,30.05,29.85,5,1,5,0.00
2012-11-28,44,42,37,43,40,35,95,94,92,29.87,29.57,8,1,8,0.14
2012-11-29,51,47,42,49,45,41,96,94,91,29.68,29.42,10,2,10,0.12
2012-11-30,54,49,46,51,47,44,96,94,85,29.43,29.33,14,2,14,1.24